Time;durP1;ratioP1;P1;durP2;ratioP2;P2;SDS_P1;SDS_P2;PMS_P1;PMS_P2;Temp;Humidity;BMP_temperature;BMP_pressure;BME280_temperature;BME280_humidity;BME280_pressure;Samples;Min_cycle;Max_cycle;Signal;HPM_P1;HPM_P2
2022/07/21 00:02:18;;;;;;;3.47;3.13;;;22.40;99.90;;;;;;5013069;28;20017;-80
2022/07/21 00:04:44;;;;;;;4.55;2.92;;;22.30;99.90;;;;;;5004813;28;20038;-79
2022/07/21 00:07:09;;;;;;;4.90;3.28;;;22.30;99.90;;;;;;5010142;28;20029;-79
2022/07/21 00:09:35;;;;;;;4.32;3.10;;;22.20;99.90;;;;;;5013741;28;20026;-79
2022/07/21 00:12:02;;;;;;;4.57;3.08;;;22.20;99.90;;;;;;5010499;28;20025;-79
2022/07/21 00:14:27;;;;;;;4.88;3.47;;;22.20;99.90;;;;;;5012017;28;20060;-79
2022/07/21 00:16:53;;;;;;;4.03;3.40;;;22.10;99.90;;;;;;5013032;28;20544;-80
2022/07/21 00:19:18;;;;;;;7.03;3.28;;;22.10;99.90;;;;;;5021140;28;20029;-79
2022/07/21 00:21:44;;;;;;;3.58;2.75;;;22.00;99.90;;;;;;5012040;28;20026;-80
2022/07/21 00:24:09;;;;;;;4.40;3.15;;;22.10;99.90;;;;;;5011186;28;20033;-79
2022/07/21 00:26:35;;;;;;;4.32;3.08;;;22.00;99.90;;;;;;5013458;28;20100;-79
2022/07/21 00:29:00;;;;;;;3.75;2.85;;;22.00;99.90;;;;;;5014674;28;20113;-79
2022/07/21 00:31:26;;;;;;;4.00;3.25;;;22.00;99.90;;;;;;4996268;28;20113;-79
2022/07/21 00:33:52;;;;;;;4.88;2.65;;;22.00;99.90;;;;;;5012247;28;20559;-79
2022/07/21 00:36:18;;;;;;;3.60;2.67;;;21.90;99.90;;;;;;5018711;28;20047;-80
2022/07/21 00:38:44;;;;;;;4.07;2.97;;;21.90;99.90;;;;;;5010915;28;20688;-80
2022/07/21 00:41:09;;;;;;;3.92;3.10;;;21.90;99.90;;;;;;5011440;28;20030;-79
2022/07/21 00:43:34;;;;;;;5.00;3.25;;;21.90;99.90;;;;;;5008617;28;20018;-80
2022/07/21 00:46:00;;;;;;;6.20;3.33;;;21.80;99.90;;;;;;5006596;28;20322;-81
2022/07/21 00:48:25;;;;;;;3.45;2.80;;;21.80;99.90;;;;;;5011051;28;20030;-81
2022/07/21 00:50:51;;;;;;;5.50;3.38;;;21.80;99.90;;;;;;5010544;28;20843;-80
2022/07/21 00:53:17;;;;;;;3.83;3.00;;;21.80;99.90;;;;;;5008657;28;20022;-81
2022/07/21 00:55:43;;;;;;;5.30;2.95;;;21.80;99.90;;;;;;5007189;28;20120;-81
2022/07/21 00:58:09;;;;;;;5.13;3.40;;;21.70;99.90;;;;;;5009681;28;20370;-81
2022/07/21 01:00:35;;;;;;;3.38;2.95;;;21.70;99.90;;;;;;5009121;28;20041;-81
2022/07/21 01:03:01;;;;;;;4.85;3.03;;;21.70;99.90;;;;;;5008761;28;20496;-81
2022/07/21 01:05:27;;;;;;;5.10;3.15;;;21.70;99.90;;;;;;5007143;28;20083;-80
2022/07/21 01:07:55;;;;;;;2.97;2.47;;;21.70;99.90;;;;;;5007988;28;20026;-81
2022/07/21 01:10:22;;;;;;;4.22;2.83;;;21.60;99.90;;;;;;5008908;28;20030;-80
2022/07/21 01:12:49;;;;;;;4.28;3.25;;;21.60;99.90;;;;;;5009516;28;20087;-81
2022/07/21 01:15:16;;;;;;;4.97;3.10;;;21.60;99.90;;;;;;5009006;28;20026;-81
2022/07/21 01:17:42;;;;;;;6.07;2.90;;;21.60;99.90;;;;;;5008834;28;20049;-80
2022/07/21 01:20:11;;;;;;;5.40;3.40;;;21.60;99.90;;;;;;5008836;28;20030;-80
2022/07/21 01:22:40;;;;;;;4.03;2.95;;;21.60;99.90;;;;;;5008396;28;20029;-79
2022/07/21 01:25:06;;;;;;;3.75;2.83;;;21.70;99.90;;;;;;5005860;28;20392;-80
2022/07/21 01:27:32;;;;;;;4.75;3.00;;;21.60;99.90;;;;;;5003618;28;20026;-80
2022/07/21 01:29:59;;;;;;;4.18;2.75;;;21.60;99.90;;;;;;5008109;28;20034;-80
2022/07/21 01:32:24;;;;;;;5.22;3.30;;;21.60;99.90;;;;;;5008958;28;20045;-80
2022/07/21 01:34:50;;;;;;;9.35;3.00;;;21.60;99.90;;;;;;5010534;28;20569;-80
2022/07/21 01:37:23;;;;;;;3.88;3.08;;;21.60;99.90;;;;;;5009765;28;20032;-80
2022/07/21 01:42:34;;;;;;;4.28;3.28;;;21.60;99.90;;;;;;5012543;28;20032;-81
2022/07/21 01:45:00;;;;;;;5.53;2.65;;;21.70;99.90;;;;;;5016883;28;20033;-79
2022/07/21 01:47:25;;;;;;;3.35;2.78;;;21.60;99.90;;;;;;5013902;28;20030;-79
2022/07/21 01:49:51;;;;;;;7.70;3.08;;;21.60;99.90;;;;;;5010235;28;20085;-79
2022/07/21 01:52:16;;;;;;;3.72;2.97;;;21.60;99.90;;;;;;5009966;28;20050;-80
2022/07/21 01:54:42;;;;;;;5.65;2.88;;;21.70;99.90;;;;;;5010015;28;20475;-80
2022/07/21 01:57:07;;;;;;;3.92;3.20;;;21.40;99.90;;;;;;5004346;28;20045;-80
2022/07/21 01:59:33;;;;;;;4.47;2.65;;;21.40;99.90;;;;;;5009077;28;20396;-79
2022/07/21 02:01:58;;;;;;;4.57;3.28;;;21.50;99.90;;;;;;5012650;28;20058;-79
2022/07/21 02:04:24;;;;;;;4.18;3.05;;;21.50;99.90;;;;;;5011371;28;20035;-79
2022/07/21 02:06:50;;;;;;;4.45;2.72;;;21.40;99.90;;;;;;5011819;28;20116;-80
2022/07/21 02:09:15;;;;;;;8.82;3.72;;;21.40;99.90;;;;;;5010520;28;20384;-80
2022/07/21 02:11:40;;;;;;;3.25;2.63;;;21.30;99.90;;;;;;5009743;28;20026;-80
2022/07/21 02:14:06;;;;;;;4.35;3.35;;;21.30;99.90;;;;;;5009695;28;20026;-80
2022/07/21 02:16:32;;;;;;;3.03;2.65;;;21.30;99.90;;;;;;5005138;28;20437;-80
2022/07/21 02:18:57;;;;;;;5.53;3.30;;;21.30;99.90;;;;;;5009445;28;20129;-80
2022/07/21 02:21:23;;;;;;;5.57;3.58;;;21.20;99.90;;;;;;5009781;28;20029;-80
2022/07/21 02:23:48;;;;;;;5.82;3.20;;;21.20;99.90;;;;;;5014408;28;20265;-80
2022/07/21 02:26:14;;;;;;;4.20;3.15;;;21.20;99.90;;;;;;5008974;28;20738;-80
2022/07/21 02:28:39;;;;;;;3.92;2.80;;;21.20;99.90;;;;;;5009540;28;20440;-80
2022/07/21 02:31:06;;;;;;;6.18;2.97;;;21.20;99.90;;;;;;5012632;28;20022;-80
2022/07/21 02:33:32;;;;;;;3.95;2.75;;;21.10;99.90;;;;;;5014531;28;20495;-80
2022/07/21 02:35:57;;;;;;;4.55;2.85;;;21.10;99.90;;;;;;5007798;28;20034;-81
2022/07/21 02:38:23;;;;;;;6.60;2.80;;;21.10;99.90;;;;;;5010708;28;20029;-81
2022/07/21 02:40:49;;;;;;;3.28;2.85;;;21.10;99.70;;;;;;5007083;28;20026;-81
2022/07/21 02:43:14;;;;;;;3.03;2.65;;;21.30;99.90;;;;;;5008135;28;20026;-81
2022/07/21 02:45:41;;;;;;;3.08;2.78;;;21.40;95.60;;;;;;5009441;28;20061;-81
2022/07/21 02:48:09;;;;;;;2.80;2.13;;;21.50;95.30;;;;;;5008762;28;21478;-80
2022/07/21 02:50:37;;;;;;;3.88;2.72;;;21.80;91.90;;;;;;5008845;28;20026;-80
2022/07/21 02:53:06;;;;;;;9.00;2.70;;;21.90;95.40;;;;;;5009304;28;20032;-81
2022/07/21 02:55:31;;;;;;;3.92;2.65;;;22.00;91.30;;;;;;5008876;28;20034;-81
2022/07/21 02:58:22;;;;;;;6.75;3.30;;;22.10;92.00;;;;;;5009031;28;20543;-81
2022/07/21 03:01:00;;;;;;;3.85;2.97;;;22.20;92.80;;;;;;5006492;28;20440;-81
2022/07/21 03:03:30;;;;;;;2.90;2.38;;;22.30;87.90;;;;;;5010083;28;20395;-81
2022/07/21 03:05:56;;;;;;;3.33;2.67;;;22.60;84.10;;;;;;5010693;28;20030;-81
2022/07/21 03:08:23;;;;;;;5.07;2.63;;;22.70;87.20;;;;;;5008796;28;20365;-80
2022/07/21 03:10:49;;;;;;;3.15;2.30;;;22.70;83.50;;;;;;5008123;28;20030;-80
2022/07/21 03:13:15;;;;;;;3.50;3.10;;;22.90;81.70;;;;;;5009500;28;20034;-81
2022/07/21 03:15:40;;;;;;;6.22;2.38;;;23.10;83.60;;;;;;5010615;28;20034;-81
2022/07/21 03:18:06;;;;;;;3.15;2.60;;;23.10;81.90;;;;;;5008034;28;20052;-81
2022/07/21 03:20:35;;;;;;;7.65;2.60;;;23.00;80.70;;;;;;5006944;28;20080;-80
2022/07/21 03:23:01;;;;;;;3.28;2.20;;;22.90;82.90;;;;;;5007028;28;20392;-81
2022/07/21 03:25:27;;;;;;;3.88;2.78;;;22.90;86.30;;;;;;5009394;28;20025;-81
2022/07/21 03:27:53;;;;;;;3.20;2.55;;;22.80;84.30;;;;;;5010054;28;20022;-81
2022/07/21 03:30:19;;;;;;;3.55;2.47;;;22.90;82.50;;;;;;5007319;28;20465;-81
2022/07/21 03:32:45;;;;;;;2.40;2.10;;;22.90;80.70;;;;;;5008507;28;20026;-81
2022/07/21 03:35:12;;;;;;;3.80;2.75;;;23.00;78.90;;;;;;5009177;28;20030;-80
2022/07/21 03:37:43;;;;;;;3.78;2.47;;;23.10;78.70;;;;;;5007172;28;20512;-81
2022/07/21 03:40:12;;;;;;;3.33;2.53;;;23.10;78.00;;;;;;5011153;28;20037;-81
2022/07/21 03:42:37;;;;;;;3.42;2.40;;;23.10;80.20;;;;;;5011531;28;20045;-81
2022/07/21 03:45:04;;;;;;;3.83;2.80;;;23.10;78.70;;;;;;5010193;28;20034;-81
2022/07/21 03:47:29;;;;;;;5.18;2.25;;;23.30;77.40;;;;;;5012219;28;20042;-80
2022/07/21 03:49:55;;;;;;;5.70;2.42;;;23.20;79.70;;;;;;4994147;28;20030;-80
2022/07/21 03:52:20;;;;;;;2.92;2.30;;;23.20;80.70;;;;;;5009849;28;20049;-82
2022/07/21 03:54:46;;;;;;;2.97;2.38;;;23.30;79.80;;;;;;5009545;28;20484;-79
2022/07/21 03:57:11;;;;;;;5.00;2.65;;;23.10;81.70;;;;;;5012749;28;20132;-82
2022/07/21 03:59:37;;;;;;;3.42;2.80;;;23.10;78.30;;;;;;5012636;28;20033;-81
2022/07/21 04:02:02;;;;;;;3.22;2.58;;;23.30;77.30;;;;;;5010664;28;20029;-82
2022/07/21 04:04:28;;;;;;;2.40;2.20;;;23.20;77.70;;;;;;5013063;28;20488;-82
2022/07/21 04:06:53;;;;;;;4.45;2.67;;;23.20;77.70;;;;;;5010064;28;20028;-82
2022/07/21 04:09:19;;;;;;;3.28;2.25;;;23.40;75.10;;;;;;5007530;28;20239;-82
2022/07/21 04:11:44;;;;;;;2.83;2.25;;;23.40;75.10;;;;;;5010603;28;20022;-82
2022/07/21 04:14:10;;;;;;;2.97;2.40;;;23.50;77.70;;;;;;5014310;28;20072;-82
2022/07/21 04:16:35;;;;;;;4.93;2.28;;;23.50;77.20;;;;;;4977842;28;973633;-81
2022/07/21 04:19:01;;;;;;;3.95;2.63;;;23.50;76.90;;;;;;5012231;28;20374;-81
2022/07/21 04:21:26;;;;;;;3.92;2.13;;;23.50;74.50;;;;;;5012643;28;20112;-80
2022/07/21 04:23:51;;;;;;;4.07;2.30;;;23.60;74.30;;;;;;5012940;28;20032;-81
2022/07/21 04:26:17;;;;;;;3.53;2.35;;;23.70;73.70;;;;;;5011857;28;20497;-80
2022/07/21 04:28:42;;;;;;;3.10;2.33;;;23.70;73.80;;;;;;5006152;28;20030;-83
2022/07/21 04:31:08;;;;;;;2.80;2.13;;;23.70;75.10;;;;;;5005331;28;20465;-81
2022/07/21 04:33:34;;;;;;;4.25;2.83;;;23.80;73.00;;;;;;5016200;28;20033;-81
2022/07/21 04:36:00;;;;;;;3.55;2.58;;;23.80;73.30;;;;;;5011052;28;20572;-82
2022/07/21 04:38:25;;;;;;;3.50;2.30;;;23.80;73.10;;;;;;5014391;28;20033;-80
2022/07/21 04:40:51;;;;;;;3.38;2.30;;;23.80;73.60;;;;;;5016665;28;20030;-80
2022/07/21 04:43:16;;;;;;;5.75;2.97;;;23.90;73.40;;;;;;5014940;28;20503;-81
2022/07/21 04:45:42;;;;;;;2.85;2.17;;;23.90;73.40;;;;;;5009295;28;20428;-81
2022/07/21 04:48:07;;;;;;;5.25;2.53;;;23.90;73.10;;;;;;5012147;28;20029;-80
2022/07/21 04:50:33;;;;;;;2.05;1.85;;;23.90;73.80;;;;;;5008200;28;20022;-79
2022/07/21 04:52:58;;;;;;;3.75;2.40;;;23.90;73.50;;;;;;5006685;28;20070;-80
2022/07/21 04:55:25;;;;;;;3.65;2.30;;;24.00;72.80;;;;;;5008590;28;20037;-81
2022/07/21 04:57:52;;;;;;;4.47;2.20;;;24.00;72.30;;;;;;5008229;28;20121;-80
2022/07/21 05:00:22;;;;;;;3.20;2.55;;;24.00;72.40;;;;;;5010723;28;20552;-80
2022/07/21 05:02:49;;;;;;;4.05;3.20;;;24.00;72.40;;;;;;5010635;28;20037;-79
2022/07/21 05:05:15;;;;;;;5.35;3.40;;;24.00;72.80;;;;;;5011013;28;20784;-80
2022/07/21 05:07:40;;;;;;;4.53;3.13;;;23.90;73.70;;;;;;5011561;28;20025;-81
2022/07/21 05:10:11;;;;;;;6.05;3.60;;;23.80;74.10;;;;;;5011058;28;20026;-80
2022/07/21 05:12:37;;;;;;;6.47;4.20;;;23.80;76.50;;;;;;5010525;28;20026;-81
2022/07/21 05:15:07;;;;;;;11.95;5.03;;;23.60;77.70;;;;;;5017834;28;20041;-78
2022/07/21 05:17:32;;;;;;;11.45;6.00;;;23.50;79.40;;;;;;5011523;28;20057;-77
2022/07/21 05:19:59;;;;;;;8.07;5.18;;;23.50;79.80;;;;;;5011609;28;20034;-77
2022/07/21 05:22:25;;;;;;;6.63;4.68;;;23.40;80.70;;;;;;5006885;28;20034;-79
2022/07/21 05:24:50;;;;;;;9.98;5.75;;;23.40;81.40;;;;;;5009163;28;20030;-79
2022/07/21 05:27:16;;;;;;;7.35;4.50;;;23.40;81.20;;;;;;5009255;28;20107;-80
2022/07/21 05:29:41;;;;;;;7.38;4.72;;;23.40;81.90;;;;;;5011155;28;20036;-78
2022/07/21 05:32:07;;;;;;;8.65;5.43;;;23.50;82.60;;;;;;5012370;28;20038;-79
2022/07/21 05:34:33;;;;;;;7.93;4.88;;;23.50;82.80;;;;;;5007867;28;20022;-79
2022/07/21 05:36:58;;;;;;;7.43;5.25;;;23.50;83.10;;;;;;5011195;28;20030;-78
2022/07/21 05:39:24;;;;;;;8.95;5.38;;;23.50;83.70;;;;;;5009220;28;20056;-79
2022/07/21 05:41:49;;;;;;;9.88;5.78;;;23.50;84.20;;;;;;5012340;28;20033;-78
2022/07/21 05:44:15;;;;;;;9.27;5.20;;;23.50;84.50;;;;;;5013109;28;20022;-77
2022/07/21 05:46:40;;;;;;;12.75;6.30;;;23.50;84.70;;;;;;5009237;28;20061;-78
2022/07/21 05:49:06;;;;;;;9.95;6.18;;;23.50;85.10;;;;;;5013028;28;20079;-81
2022/07/21 05:51:31;;;;;;;9.38;6.40;;;23.40;86.30;;;;;;5015873;28;20487;-77
2022/07/21 05:53:57;;;;;;;9.90;6.05;;;23.40;86.70;;;;;;5020152;28;20033;-80
2022/07/21 05:56:22;;;;;;;9.48;5.63;;;23.40;87.30;;;;;;5010718;28;20042;-76
2022/07/21 05:58:48;;;;;;;11.20;5.80;;;23.30;87.00;;;;;;5009311;28;20048;-81
2022/07/21 06:01:13;;;;;;;9.70;6.15;;;23.30;88.40;;;;;;5009325;28;20050;-76
2022/07/21 06:03:41;;;;;;;13.27;5.68;;;23.30;87.90;;;;;;5008753;28;20133;-76
2022/07/21 06:06:07;;;;;;;7.80;5.20;;;23.30;88.40;;;;;;5009303;28;20640;-79
2022/07/21 06:08:33;;;;;;;10.73;6.30;;;23.30;88.40;;;;;;5009862;28;20488;-76
2022/07/21 06:10:59;;;;;;;12.25;6.88;;;23.30;88.40;;;;;;5006433;28;20076;-77
2022/07/21 06:13:24;;;;;;;10.68;6.15;;;23.40;88.70;;;;;;5009169;28;20030;-78
2022/07/21 06:15:50;;;;;;;11.05;5.68;;;23.50;88.90;;;;;;5008937;28;20058;-77
2022/07/21 06:18:16;;;;;;;8.18;5.75;;;23.50;88.90;;;;;;5008415;28;20121;-77
2022/07/21 06:20:42;;;;;;;13.05;6.72;;;23.50;88.60;;;;;;5011438;28;20064;-80
2022/07/21 06:23:07;;;;;;;11.63;6.35;;;23.50;89.20;;;;;;5004251;28;20092;-79
2022/07/21 06:25:33;;;;;;;7.05;4.85;;;23.50;88.50;;;;;;5002990;28;20084;-80
2022/07/21 06:27:58;;;;;;;10.32;6.35;;;23.40;88.70;;;;;;5005065;28;20113;-80
2022/07/21 06:30:24;;;;;;;11.63;6.68;;;23.40;88.70;;;;;;5009811;28;20472;-77
2022/07/21 06:32:49;;;;;;;11.45;6.55;;;23.40;88.80;;;;;;5011943;28;20018;-81
2022/07/21 06:35:15;;;;;;;8.27;5.50;;;23.30;89.30;;;;;;5011770;28;20032;-81
2022/07/21 06:37:47;;;;;;;10.38;5.60;;;23.30;89.00;;;;;;5010708;28;20041;-79
2022/07/21 06:40:13;;;;;;;7.10;5.00;;;23.30;89.70;;;;;;5006966;28;20030;-79
2022/07/21 06:42:39;;;;;;;11.38;6.22;;;23.40;89.60;;;;;;5007566;28;20060;-79
2022/07/21 06:45:04;;;;;;;8.82;6.22;;;23.40;89.00;;;;;;5007281;28;20122;-88
2022/07/21 06:47:30;;;;;;;8.25;5.18;;;23.40;88.90;;;;;;5010660;28;20491;-82
2022/07/21 06:49:57;;;;;;;11.00;5.85;;;23.40;88.90;;;;;;5007120;28;20022;-77
2022/07/21 06:52:55;;;;;;;9.00;5.13;;;23.40;88.30;;;;;;5007469;28;20367;-77
2022/07/21 06:55:21;;;;;;;7.85;5.35;;;23.50;89.10;;;;;;4993763;28;20508;-77
2022/07/21 06:57:46;;;;;;;12.88;6.70;;;23.50;88.80;;;;;;5010996;28;20057;-78
2022/07/21 07:00:12;;;;;;;10.95;6.15;;;23.50;87.80;;;;;;5015295;28;20053;-77
2022/07/21 07:02:37;;;;;;;10.93;6.60;;;23.50;87.40;;;;;;5009013;28;20034;-79
2022/07/21 07:05:03;;;;;;;9.00;5.60;;;23.40;87.60;;;;;;5008679;28;20022;-77
2022/07/21 07:07:30;;;;;;;12.50;5.15;;;23.50;88.70;;;;;;5007631;28;20029;-77
2022/07/21 07:09:56;;;;;;;8.85;5.35;;;23.50;89.10;;;;;;5011079;28;20030;-78
2022/07/21 07:12:21;;;;;;;8.90;4.85;;;23.60;87.70;;;;;;5009234;28;20045;-78
2022/07/21 07:14:47;;;;;;;6.47;4.47;;;23.60;87.20;;;;;;5007290;28;20381;-78
2022/07/21 07:17:18;;;;;;;11.60;5.82;;;23.60;87.40;;;;;;5007726;28;20532;-80
2022/07/21 07:19:44;;;;;;;9.68;5.60;;;23.60;87.40;;;;;;5007077;28;20030;-83
2022/07/21 07:22:09;;;;;;;8.88;5.40;;;23.50;87.20;;;;;;5009414;28;20036;-77
2022/07/21 07:24:35;;;;;;;7.70;5.20;;;23.60;87.00;;;;;;5007081;28;20026;-81
2022/07/21 07:27:00;;;;;;;8.43;5.35;;;23.60;87.40;;;;;;5002344;28;20561;-83
2022/07/21 07:29:27;;;;;;;9.57;5.28;;;23.70;87.80;;;;;;5007123;28;20026;-81
2022/07/21 07:31:53;;;;;;;10.43;5.53;;;23.80;86.30;;;;;;4985154;28;20499;-77
2022/07/21 07:34:18;;;;;;;8.65;5.22;;;23.90;86.80;;;;;;5005638;28;20030;-83
2022/07/21 07:36:44;;;;;;;12.05;5.53;;;24.00;87.30;;;;;;5012014;28;20126;-82
2022/07/21 07:39:09;;;;;;;9.43;5.55;;;24.00;85.90;;;;;;5007779;28;20084;-82
2022/07/21 07:41:35;;;;;;;8.80;4.85;;;24.10;85.80;;;;;;5006181;28;20033;-84
2022/07/21 07:44:00;;;;;;;7.18;4.45;;;24.20;84.70;;;;;;5006649;28;20468;-79
2022/07/21 07:46:26;;;;;;;7.82;5.10;;;24.20;85.00;;;;;;5007997;28;20052;-85
2022/07/21 07:48:52;;;;;;;6.65;4.78;;;24.30;83.90;;;;;;5005718;28;20030;-86
2022/07/21 07:51:17;;;;;;;6.90;4.65;;;24.40;82.90;;;;;;5005945;28;20026;-84
2022/07/21 07:53:43;;;;;;;6.63;4.97;;;24.40;83.00;;;;;;5001116;28;20049;-83
2022/07/21 07:56:08;;;;;;;5.60;4.50;;;24.50;83.10;;;;;;5006638;28;20820;-81
2022/07/21 07:58:34;;;;;;;5.82;4.20;;;24.50;82.50;;;;;;5007168;28;20033;-82
2022/07/21 08:01:01;;;;;;;8.00;4.85;;;24.60;82.90;;;;;;5007200;28;20379;-84
2022/07/21 08:03:27;;;;;;;6.35;4.55;;;24.70;82.70;;;;;;5008545;28;20424;-82
2022/07/21 08:06:02;;;;;;;5.70;4.22;;;24.90;80.50;;;;;;5004808;28;20033;-80
2022/07/21 08:08:28;;;;;;;9.63;5.28;;;25.10;79.80;;;;;;5008123;28;20026;-84
2022/07/21 08:10:53;;;;;;;8.68;4.55;;;25.40;79.80;;;;;;5007733;28;20029;-81
2022/07/21 08:13:18;;;;;;;7.68;4.30;;;25.80;77.30;;;;;;5004393;28;20026;-81
2022/07/21 08:15:46;;;;;;;7.30;5.00;;;26.10;76.40;;;;;;5009982;28;20057;-80
2022/07/21 08:18:16;;;;;;;7.13;4.50;;;26.10;74.50;;;;;;5005926;28;20160;-79
2022/07/21 08:20:42;;;;;;;7.30;4.22;;;25.90;75.30;;;;;;5008586;28;20041;-78
2022/07/21 08:23:08;;;;;;;6.47;4.35;;;25.90;75.00;;;;;;5005952;28;20030;-80
2022/07/21 08:25:34;;;;;;;10.07;4.53;;;25.70;76.50;;;;;;5004649;28;20384;-79
2022/07/21 08:28:00;;;;;;;8.52;4.18;;;25.90;76.10;;;;;;5009615;28;20463;-79
2022/07/21 08:30:26;;;;;;;6.60;4.38;;;26.10;75.00;;;;;;5026903;28;20033;-77
2022/07/21 08:32:51;;;;;;;8.75;4.38;;;26.30;74.30;;;;;;5011591;28;20045;-77
2022/07/21 08:35:17;;;;;;;9.00;4.78;;;26.30;74.00;;;;;;5009122;28;21729;-78
2022/07/21 08:37:56;;;;;;;4.82;3.85;;;26.10;73.10;;;;;;5010230;28;20034;-77
2022/07/21 08:40:26;;;;;;;6.55;4.60;;;26.10;73.50;;;;;;5011149;28;20042;-78
2022/07/21 08:42:53;;;;;;;6.03;3.93;;;26.30;73.90;;;;;;5009048;28;20526;-77
2022/07/21 08:45:37;;;;;;;5.32;3.78;;;26.10;74.70;;;;;;5009784;28;20392;-75
2022/07/21 08:51:31;;;;;;;11.10;4.90;;;26.00;74.90;;;;;;4986322;28;20049;-81
2022/07/21 08:53:56;;;;;;;5.95;4.50;;;26.00;74.80;;;;;;5011681;28;20026;-80
2022/07/21 08:56:22;;;;;;;10.85;4.90;;;25.90;74.80;;;;;;5006687;28;20084;-81
2022/07/21 08:58:47;;;;;;;10.40;4.53;;;25.90;75.90;;;;;;5005324;28;20196;-79
2022/07/21 09:01:13;;;;;;;4.90;3.70;;;26.00;75.30;;;;;;5008560;28;20033;-79
2022/07/21 09:03:39;;;;;;;8.05;3.78;;;25.90;75.60;;;;;;5009318;28;20064;-76
2022/07/21 09:06:16;;;;;;;8.10;3.60;;;25.80;77.30;;;;;;5007184;28;20507;-77
2022/07/21 09:08:54;;;;;;;7.07;4.40;;;26.00;76.00;;;;;;5008290;28;20038;-79
2022/07/21 09:11:27;;;;;;;7.47;4.45;;;26.30;74.20;;;;;;5006163;28;20601;-78
2022/07/21 09:14:12;;;;;;;4.68;3.40;;;26.50;74.20;;;;;;5008673;28;20026;-78
2022/07/21 09:16:39;;;;;;;7.43;3.50;;;26.70;70.80;;;;;;5010182;28;20060;-79
2022/07/21 09:19:06;;;;;;;6.40;4.35;;;26.70;69.70;;;;;;5006765;28;20037;-79
2022/07/21 09:21:35;;;;;;;12.05;4.45;;;26.50;70.30;;;;;;5010751;28;20306;-77
2022/07/21 09:27:28;;;;;;;7.93;4.13;;;26.50;70.70;;;;;;5001249;28;20045;-77
2022/07/21 09:29:57;;;;;;;6.97;3.97;;;26.40;72.30;;;;;;5009398;28;20048;-77
2022/07/21 09:32:37;;;;;;;6.13;3.50;;;26.30;71.40;;;;;;5008638;28;20038;-77
2022/07/21 09:35:09;;;;;;;8.87;3.60;;;26.60;70.00;;;;;;5003197;28;20036;-77
2022/07/21 09:37:36;;;;;;;5.97;3.53;;;26.60;70.00;;;;;;5003392;28;20022;-77
2022/07/21 09:40:08;;;;;;;7.05;3.58;;;26.40;70.80;;;;;;5003838;28;20072;-78
2022/07/21 09:42:37;;;;;;;6.65;3.97;;;26.70;70.40;;;;;;4987663;28;20031;-78
2022/07/21 09:45:09;;;;;;;6.03;3.85;;;26.70;69.40;;;;;;5000034;28;20038;-77
2022/07/21 09:47:38;;;;;;;8.68;4.15;;;26.60;69.70;;;;;;5005891;28;20022;-77
2022/07/21 09:50:05;;;;;;;6.35;3.45;;;26.30;71.40;;;;;;5004608;28;20092;-77
2022/07/21 09:52:39;;;;;;;3.28;2.70;;;26.70;70.00;;;;;;5006238;28;20116;-77
2022/07/21 09:55:15;;;;;;;3.70;2.80;;;27.20;68.00;;;;;;5002900;28;20080;-76
2022/07/21 09:57:42;;;;;;;4.80;3.25;;;27.40;66.80;;;;;;5004604;28;20033;-77
2022/07/21 10:00:16;;;;;;;4.25;3.08;;;27.60;67.10;;;;;;5004855;28;20030;-77
2022/07/21 10:02:43;;;;;;;4.75;3.10;;;27.30;66.80;;;;;;5005131;28;20116;-77
2022/07/21 10:05:12;;;;;;;9.80;3.72;;;27.70;65.30;;;;;;5005747;28;20117;-76
2022/07/21 10:07:44;;;;;;;4.45;3.35;;;27.80;64.40;;;;;;5008600;28;20029;-77
2022/07/21 10:10:11;;;;;;;4.63;3.42;;;27.90;65.40;;;;;;5015980;28;20037;-77
2022/07/21 10:12:37;;;;;;;5.13;3.25;;;28.30;63.70;;;;;;5007282;28;20033;-77
2022/07/21 10:15:03;;;;;;;5.78;3.03;;;28.30;63.00;;;;;;4999431;28;20033;-76
2022/07/21 10:17:29;;;;;;;4.03;2.70;;;28.50;61.40;;;;;;4996354;28;20054;-76
2022/07/21 10:20:07;;;;;;;6.00;3.20;;;28.20;61.40;;;;;;5002459;28;20044;-77
2022/07/21 10:23:05;;;;;;;4.05;2.60;;;28.20;63.40;;;;;;5004510;28;20026;-76
2022/07/21 10:25:31;;;;;;;6.20;3.28;;;28.20;63.40;;;;;;5004660;28;20029;-77
2022/07/21 10:28:18;;;;;;;4.07;2.85;;;27.60;65.40;;;;;;4999876;28;20786;-76
2022/07/21 10:30:47;;;;;;;6.38;2.90;;;27.30;65.60;;;;;;4994405;28;20083;-76
2022/07/21 10:33:14;;;;;;;3.15;2.50;;;27.70;64.50;;;;;;5007358;28;20033;-75
2022/07/21 10:35:47;;;;;;;4.25;2.58;;;27.70;63.40;;;;;;5008175;28;20494;-72
2022/07/21 10:38:25;;;;;;;2.90;2.20;;;27.30;64.10;;;;;;5009626;28;20064;-76
2022/07/21 10:40:51;;;;;;;3.90;2.78;;;27.30;64.10;;;;;;5004635;28;20125;-76
2022/07/21 10:43:17;;;;;;;7.63;3.17;;;27.50;63.70;;;;;;5009062;28;20121;-76
2022/07/21 10:45:43;;;;;;;5.13;2.47;;;27.90;61.50;;;;;;5005965;28;20137;-80
2022/07/21 10:48:37;;;;;;;2.90;2.20;;;27.90;60.90;;;;;;5007730;28;20548;-84
2022/07/21 10:51:07;;;;;;;4.60;2.67;;;27.70;61.90;;;;;;5008478;28;20033;-78
2022/07/21 10:53:32;;;;;;;2.92;2.03;;;27.60;61.90;;;;;;5008348;28;20118;-81
2022/07/21 10:55:58;;;;;;;2.92;2.10;;;27.60;62.40;;;;;;5008181;28;20730;-80
2022/07/21 10:58:31;;;;;;;7.32;3.17;;;27.50;62.70;;;;;;5005459;28;20037;-80
2022/07/21 11:01:18;;;;;;;17.23;2.83;;;27.50;63.40;;;;;;5007190;28;20499;-79
2022/07/21 11:03:45;;;;;;;3.65;2.53;;;27.50;63.40;;;;;;5008384;28;20041;-77
2022/07/21 11:06:24;;;;;;;4.38;2.78;;;27.90;62.10;;;;;;5007661;28;20101;-83
2022/07/21 11:09:12;;;;;;;2.60;1.92;;;28.30;59.90;;;;;;5003677;28;20052;-78
2022/07/21 11:11:55;;;;;;;4.28;2.00;;;28.20;59.80;;;;;;5006384;28;20105;-78
2022/07/21 11:14:41;;;;;;;3.67;2.05;;;28.10;60.80;;;;;;5005353;28;20038;-80
2022/07/21 11:17:09;;;;;;;2.75;2.00;;;28.00;61.20;;;;;;5003095;28;20081;-77
2022/07/21 11:19:37;;;;;;;5.20;2.20;;;28.00;60.90;;;;;;5010760;28;20029;-85
2022/07/21 11:22:15;;;;;;;5.00;2.15;;;28.30;60.60;;;;;;5007470;28;20400;-86
2022/07/21 11:24:48;;;;;;;2.95;2.40;;;28.90;59.00;;;;;;5009892;28;20120;-83
2022/07/21 11:27:16;;;;;;;4.55;2.75;;;28.90;59.30;;;;;;5003965;28;20455;-83
2022/07/21 11:29:43;;;;;;;2.92;1.75;;;29.20;58.60;;;;;;5014151;28;20099;-87
2022/07/21 11:32:09;;;;;;;3.72;2.20;;;29.40;57.60;;;;;;5000404;28;20033;-88
2022/07/21 11:34:54;;;;;;;4.75;2.25;;;29.40;58.10;;;;;;5015874;28;20049;-86
2022/07/21 11:37:34;;;;;;;3.33;2.47;;;29.60;58.00;;;;;;5002169;28;20076;-84
2022/07/21 11:40:00;;;;;;;2.60;2.25;;;29.40;57.60;;;;;;5004527;28;20471;-86
2022/07/21 11:42:27;;;;;;;3.38;2.28;;;29.60;57.50;;;;;;5007892;28;20547;-82
2022/07/21 11:44:53;;;;;;;4.47;2.70;;;29.70;57.40;;;;;;5007052;28;20033;-80
2022/07/21 11:47:22;;;;;;;4.28;2.38;;;29.50;57.40;;;;;;5006183;28;20440;-82
2022/07/21 11:49:51;;;;;;;2.47;2.10;;;29.00;57.90;;;;;;5005234;28;20061;-82
2022/07/21 11:52:17;;;;;;;3.17;2.25;;;28.70;57.90;;;;;;5009736;28;20039;-82
2022/07/21 11:54:47;;;;;;;3.85;2.58;;;28.40;58.70;;;;;;5014539;28;20026;-82
2022/07/21 11:57:14;;;;;;;3.35;1.92;;;28.40;59.30;;;;;;5009449;28;20532;-81
2022/07/21 11:59:41;;;;;;;2.53;2.08;;;28.30;60.30;;;;;;5012916;28;20041;-81
2022/07/21 12:02:29;;;;;;;4.53;2.45;;;28.20;60.10;;;;;;5000264;28;20057;-83
2022/07/21 12:04:56;;;;;;;3.90;2.50;;;28.10;60.60;;;;;;5012649;28;20041;-81
2022/07/21 12:07:24;;;;;;;3.28;2.42;;;27.90;60.70;;;;;;5006653;28;20152;-76
2022/07/21 12:09:53;;;;;;;3.15;2.20;;;27.70;61.80;;;;;;5009245;28;20034;-78
2022/07/21 12:12:27;;;;;;;3.60;2.28;;;27.70;61.90;;;;;;5023348;28;20493;-78
2022/07/21 12:14:53;;;;;;;2.40;2.20;;;27.20;62.90;;;;;;5009812;28;20026;-77
2022/07/21 12:17:33;;;;;;;2.63;2.05;;;27.30;63.20;;;;;;5008684;28;20832;-77
2022/07/21 12:19:59;;;;;;;3.40;2.40;;;27.10;63.60;;;;;;5005057;28;20029;-79
2022/07/21 12:22:46;;;;;;;2.42;1.95;;;27.20;63.00;;;;;;5009977;28;20487;-78
2022/07/21 12:25:14;;;;;;;9.30;1.95;;;27.10;63.30;;;;;;5002857;28;20030;-78
2022/07/21 12:27:41;;;;;;;3.38;2.08;;;26.80;66.00;;;;;;5009906;28;20034;-78
2022/07/21 12:30:09;;;;;;;3.65;2.28;;;26.80;64.60;;;;;;5007950;28;20029;-78
2022/07/21 12:33:02;;;;;;;2.55;2.00;;;26.60;65.50;;;;;;5002469;28;20084;-81
2022/07/21 12:35:28;;;;;;;3.85;2.42;;;26.50;66.50;;;;;;5008507;28;20042;-80
2022/07/21 12:38:06;;;;;;;7.43;2.75;;;26.50;66.00;;;;;;5010583;28;20088;-82
2022/07/21 12:41:10;;;;;;;2.30;2.10;;;25.80;68.50;;;;;;5005834;28;20034;-75
2022/07/21 12:43:35;;;;;;;3.95;2.60;;;25.80;68.90;;;;;;5011307;28;20037;-82
2022/07/21 12:46:19;;;;;;;3.40;2.00;;;26.00;69.00;;;;;;5006541;28;20037;-78
2022/07/21 12:48:48;;;;;;;3.13;2.20;;;26.00;69.30;;;;;;4996642;28;20049;-82
2022/07/21 12:51:14;;;;;;;3.63;2.25;;;26.10;71.90;;;;;;5008150;28;20041;-78
2022/07/21 12:53:49;;;;;;;3.92;2.42;;;26.30;70.00;;;;;;5007652;28;20052;-76
2022/07/21 12:56:27;;;;;;;2.92;2.08;;;26.30;69.30;;;;;;5008986;28;20502;-86
2022/07/21 12:58:55;;;;;;;2.53;2.05;;;26.20;72.80;;;;;;5011598;28;20025;-84
2022/07/21 13:01:22;;;;;;;2.72;2.17;;;26.10;71.80;;;;;;5011022;28;20478;-82